sensor_id;sensor_type;location;lat;lon;timestamp;temperature;humidity
30063;DHT22;16889;67.864;24.990;2022-11-20T00:01:23;-6.80;99.90
30063;DHT22;16889;67.864;24.990;2022-11-20T00:06:12;-6.80;99.90
30063;DHT22;16889;67.864;24.990;2022-11-20T00:11:06;-6.80;99.90
30063;DHT22;16889;67.864;24.990;2022-11-20T00:15:57;-6.90;99.90
30063;DHT22;16889;67.864;24.990;2022-11-20T00:20:44;-6.90;99.90
30063;DHT22;16889;67.864;24.990;2022-11-20T00:25:30;-6.90;99.90
30063;DHT22;16889;67.864;24.990;2022-11-20T00:30:16;-7.00;99.90
30063;DHT22;16889;67.864;24.990;2022-11-20T00:35:02;-7.00;99.90
30063;DHT22;16889;67.864;24.990;2022-11-20T00:39:48;-7.00;99.90
30063;DHT22;16889;67.864;24.990;2022-11-20T00:44:34;-7.00;99.90
30063;DHT22;16889;67.864;24.990;2022-11-20T00:49:19;-7.00;99.90
30063;DHT22;16889;67.864;24.990;2022-11-20T00:54:05;-7.00;99.90
30063;DHT22;16889;67.864;24.990;2022-11-20T00:58:51;-7.00;99.90
30063;DHT22;16889;67.864;24.990;2022-11-20T01:03:40;-7.10;99.90
30063;DHT22;16889;67.864;24.990;2022-11-20T01:08:30;-7.00;99.90
30063;DHT22;16889;67.864;24.990;2022-11-20T01:13:18;-7.20;99.90
30063;DHT22;16889;67.864;24.990;2022-11-20T01:18:22;-7.10;99.90
30063;DHT22;16889;67.864;24.990;2022-11-20T01:23:08;-7.10;99.90
30063;DHT22;16889;67.864;24.990;2022-11-20T01:27:54;-7.20;99.90
30063;DHT22;16889;67.864;24.990;2022-11-20T01:32:40;-7.20;99.90
30063;DHT22;16889;67.864;24.990;2022-11-20T01:37:57;-7.30;99.90
30063;DHT22;16889;67.864;24.990;2022-11-20T01:43:18;-7.30;99.90
30063;DHT22;16889;67.864;24.990;2022-11-20T01:48:08;-7.30;99.90
30063;DHT22;16889;67.864;24.990;2022-11-20T01:53:00;-7.40;99.90
30063;DHT22;16889;67.864;24.990;2022-11-20T02:03:23;-7.60;99.90
30063;DHT22;16889;67.864;24.990;2022-11-20T02:08:15;-7.70;99.90
30063;DHT22;16889;67.864;24.990;2022-11-20T02:13:03;-7.80;99.90
30063;DHT22;16889;67.864;24.990;2022-11-20T02:18:08;-7.80;99.90
30063;DHT22;16889;67.864;24.990;2022-11-20T02:22:56;-7.80;99.90
30063;DHT22;16889;67.864;24.990;2022-11-20T02:27:43;-7.80;99.90
30063;DHT22;16889;67.864;24.990;2022-11-20T02:32:34;-7.90;99.90
30063;DHT22;16889;67.864;24.990;2022-11-20T02:37:21;-8.00;99.90
30063;DHT22;16889;67.864;24.990;2022-11-20T02:42:07;-8.00;99.90
30063;DHT22;16889;67.864;24.990;2022-11-20T02:46:56;-8.00;99.90
30063;DHT22;16889;67.864;24.990;2022-11-20T02:51:42;-8.00;99.90
30063;DHT22;16889;67.864;24.990;2022-11-20T02:56:28;-8.00;99.90
30063;DHT22;16889;67.864;24.990;2022-11-20T03:01:14;-7.90;99.90
30063;DHT22;16889;67.864;24.990;2022-11-20T03:06:00;-8.00;99.90
30063;DHT22;16889;67.864;24.990;2022-11-20T03:10:46;-8.00;99.90
30063;DHT22;16889;67.864;24.990;2022-11-20T03:15:32;-8.10;99.90
30063;DHT22;16889;67.864;24.990;2022-11-20T03:20:18;-8.10;99.90
30063;DHT22;16889;67.864;24.990;2022-11-20T03:25:05;-8.20;99.90
30063;DHT22;16889;67.864;24.990;2022-11-20T03:29:51;-8.30;99.90
30063;DHT22;16889;67.864;24.990;2022-11-20T03:34:37;-8.50;99.90
30063;DHT22;16889;67.864;24.990;2022-11-20T03:50:46;-8.60;99.90
30063;DHT22;16889;67.864;24.990;2022-11-20T03:55:33;-8.50;99.90
30063;DHT22;16889;67.864;24.990;2022-11-20T04:00:19;-8.70;99.90
30063;DHT22;16889;67.864;24.990;2022-11-20T04:05:05;-8.80;99.90
30063;DHT22;16889;67.864;24.990;2022-11-20T04:09:51;-8.90;99.90
30063;DHT22;16889;67.864;24.990;2022-11-20T04:20:07;-9.00;99.90
30063;DHT22;16889;67.864;24.990;2022-11-20T04:24:53;-8.90;99.90
30063;DHT22;16889;67.864;24.990;2022-11-20T04:29:39;-8.90;99.90
30063;DHT22;16889;67.864;24.990;2022-11-20T04:34:40;-9.00;99.90
30063;DHT22;16889;67.864;24.990;2022-11-20T04:45:08;-9.00;99.90
30063;DHT22;16889;67.864;24.990;2022-11-20T04:49:54;-9.00;99.90
30063;DHT22;16889;67.864;24.990;2022-11-20T04:54:40;-9.00;99.90
30063;DHT22;16889;67.864;24.990;2022-11-20T04:59:26;-9.20;99.90
30063;DHT22;16889;67.864;24.990;2022-11-20T05:04:21;-9.40;99.90
30063;DHT22;16889;67.864;24.990;2022-11-20T05:09:07;-9.40;99.90
30063;DHT22;16889;67.864;24.990;2022-11-20T05:13:53;-9.40;99.90
30063;DHT22;16889;67.864;24.990;2022-11-20T05:18:40;-9.40;99.90
30063;DHT22;16889;67.864;24.990;2022-11-20T05:23:26;-9.40;99.90
30063;DHT22;16889;67.864;24.990;2022-11-20T05:33:54;-9.50;99.90
30063;DHT22;16889;67.864;24.990;2022-11-20T05:38:40;-9.60;99.90
30063;DHT22;16889;67.864;24.990;2022-11-20T05:43:26;-9.70;99.90
30063;DHT22;16889;67.864;24.990;2022-11-20T05:48:12;-9.70;99.90
30063;DHT22;16889;67.864;24.990;2022-11-20T05:52:59;-9.80;99.90
30063;DHT22;16889;67.864;24.990;2022-11-20T05:57:46;-9.80;99.90
30063;DHT22;16889;67.864;24.990;2022-11-20T06:02:34;-9.80;99.90
30063;DHT22;16889;67.864;24.990;2022-11-20T06:07:21;-9.90;99.90
30063;DHT22;16889;67.864;24.990;2022-11-20T06:12:07;-10.00;99.90
30063;DHT22;16889;67.864;24.990;2022-11-20T06:16:53;-9.90;99.90
30063;DHT22;16889;67.864;24.990;2022-11-20T06:21:39;-9.80;99.90
30063;DHT22;16889;67.864;24.990;2022-11-20T06:26:26;-9.80;99.90
30063;DHT22;16889;67.864;24.990;2022-11-20T06:31:14;-9.70;99.90
30063;DHT22;16889;67.864;24.990;2022-11-20T06:36:01;-9.70;99.90
30063;DHT22;16889;67.864;24.990;2022-11-20T06:40:47;-9.70;99.90
30063;DHT22;16889;67.864;24.990;2022-11-20T06:45:33;-9.80;99.90
30063;DHT22;16889;67.864;24.990;2022-11-20T06:50:19;-9.80;99.90
30063;DHT22;16889;67.864;24.990;2022-11-20T06:55:05;-10.10;99.90
30063;DHT22;16889;67.864;24.990;2022-11-20T06:59:51;-10.00;99.90
30063;DHT22;16889;67.864;24.990;2022-11-20T07:04:37;-9.90;99.90
30063;DHT22;16889;67.864;24.990;2022-11-20T07:09:23;-10.00;99.90
30063;DHT22;16889;67.864;24.990;2022-11-20T07:14:09;-10.10;99.90
30063;DHT22;16889;67.864;24.990;2022-11-20T07:18:56;-10.30;99.90
30063;DHT22;16889;67.864;24.990;2022-11-20T07:23:44;-10.30;99.90
30063;DHT22;16889;67.864;24.990;2022-11-20T07:28:30;-10.40;99.90
30063;DHT22;16889;67.864;24.990;2022-11-20T07:33:16;-10.40;99.90
30063;DHT22;16889;67.864;24.990;2022-11-20T07:38:02;-10.40;99.90
30063;DHT22;16889;67.864;24.990;2022-11-20T07:42:52;-10.40;99.90
30063;DHT22;16889;67.864;24.990;2022-11-20T07:47:38;-10.60;99.90
30063;DHT22;16889;67.864;24.990;2022-11-20T07:52:24;-10.60;99.90
30063;DHT22;16889;67.864;24.990;2022-11-20T07:57:10;-10.80;99.90
30063;DHT22;16889;67.864;24.990;2022-11-20T08:01:56;-11.00;99.90
30063;DHT22;16889;67.864;24.990;2022-11-20T08:06:42;-11.10;99.90
30063;DHT22;16889;67.864;24.990;2022-11-20T08:11:28;-11.20;99.90
30063;DHT22;16889;67.864;24.990;2022-11-20T08:16:32;-11.10;99.90
30063;DHT22;16889;67.864;24.990;2022-11-20T08:21:18;-11.30;99.90
30063;DHT22;16889;67.864;24.990;2022-11-20T08:26:06;-11.40;99.90
30063;DHT22;16889;67.864;24.990;2022-11-20T08:31:01;-11.30;99.90
30063;DHT22;16889;67.864;24.990;2022-11-20T08:35:47;-11.40;99.90
30063;DHT22;16889;67.864;24.990;2022-11-20T08:40:33;-11.60;99.90
30063;DHT22;16889;67.864;24.990;2022-11-20T08:45:20;-11.70;99.90
30063;DHT22;16889;67.864;24.990;2022-11-20T08:50:06;-11.90;99.90
30063;DHT22;16889;67.864;24.990;2022-11-20T08:54:52;-12.00;99.90
30063;DHT22;16889;67.864;24.990;2022-11-20T08:59:38;-12.00;99.90
30063;DHT22;16889;67.864;24.990;2022-11-20T09:04:24;-11.90;99.90
30063;DHT22;16889;67.864;24.990;2022-11-20T09:14:52;-11.80;99.90
30063;DHT22;16889;67.864;24.990;2022-11-20T09:19:38;-11.70;99.90
30063;DHT22;16889;67.864;24.990;2022-11-20T09:24:25;-11.80;99.90
30063;DHT22;16889;67.864;24.990;2022-11-20T09:29:11;-12.10;99.90
30063;DHT22;16889;67.864;24.990;2022-11-20T09:50:32;-12.10;99.90
30063;DHT22;16889;67.864;24.990;2022-11-20T09:55:20;-11.90;99.90
30063;DHT22;16889;67.864;24.990;2022-11-20T10:00:11;-12.10;99.90
30063;DHT22;16889;67.864;24.990;2022-11-20T10:09:56;-12.20;99.90
30063;DHT22;16889;67.864;24.990;2022-11-20T10:15:06;-12.10;99.90
30063;DHT22;16889;67.864;24.990;2022-11-20T10:20:18;-12.10;99.90
30063;DHT22;16889;67.864;24.990;2022-11-20T10:34:59;-12.20;99.90
30063;DHT22;16889;67.864;24.990;2022-11-20T10:50:12;-12.20;99.90
30063;DHT22;16889;67.864;24.990;2022-11-20T10:55:28;-12.30;99.90
30063;DHT22;16889;67.864;24.990;2022-11-20T11:00:15;-12.50;99.90
30063;DHT22;16889;67.864;24.990;2022-11-20T11:15:05;-12.70;99.90
30063;DHT22;16889;67.864;24.990;2022-11-20T11:20:14;-12.90;99.90
30063;DHT22;16889;67.864;24.990;2022-11-20T11:25:02;-13.10;99.90
30063;DHT22;16889;67.864;24.990;2022-11-20T11:29:49;-13.20;99.90
30063;DHT22;16889;67.864;24.990;2022-11-20T11:34:35;-13.40;99.90
30063;DHT22;16889;67.864;24.990;2022-11-20T11:39:21;-13.60;99.90
30063;DHT22;16889;67.864;24.990;2022-11-20T11:44:28;-13.80;99.90
30063;DHT22;16889;67.864;24.990;2022-11-20T11:49:34;-13.90;99.90
30063;DHT22;16889;67.864;24.990;2022-11-20T11:59:37;-14.20;99.90
30063;DHT22;16889;67.864;24.990;2022-11-20T12:04:54;-14.20;99.90
30063;DHT22;16889;67.864;24.990;2022-11-20T12:09:48;-14.30;99.90
30063;DHT22;16889;67.864;24.990;2022-11-20T12:14:42;-14.30;99.90
30063;DHT22;16889;67.864;24.990;2022-11-20T12:19:35;-14.40;99.90
30063;DHT22;16889;67.864;24.990;2022-11-20T12:24:29;-14.40;99.90
30063;DHT22;16889;67.864;24.990;2022-11-20T12:29:24;-14.40;99.90
30063;DHT22;16889;67.864;24.990;2022-11-20T12:34:35;-14.40;99.90
30063;DHT22;16889;67.864;24.990;2022-11-20T13:00:31;-14.60;99.90
30063;DHT22;16889;67.864;24.990;2022-11-20T13:05:21;-14.70;99.90
30063;DHT22;16889;67.864;24.990;2022-11-20T13:20:16;-14.90;99.90
30063;DHT22;16889;67.864;24.990;2022-11-20T13:25:03;-15.00;99.90
30063;DHT22;16889;67.864;24.990;2022-11-20T13:30:10;-15.10;99.90
30063;DHT22;16889;67.864;24.990;2022-11-20T13:35:03;-15.10;99.90
30063;DHT22;16889;67.864;24.990;2022-11-20T13:39:49;-15.10;99.90
30063;DHT22;16889;67.864;24.990;2022-11-20T13:44:38;-15.00;99.90
30063;DHT22;16889;67.864;24.990;2022-11-20T13:49:38;-14.90;99.90
30063;DHT22;16889;67.864;24.990;2022-11-20T14:14:02;-15.60;99.90
30063;DHT22;16889;67.864;24.990;2022-11-20T14:18:48;-15.80;99.90
30063;DHT22;16889;67.864;24.990;2022-11-20T14:23:34;-16.00;99.90
30063;DHT22;16889;67.864;24.990;2022-11-20T14:28:24;-16.00;99.90
30063;DHT22;16889;67.864;24.990;2022-11-20T14:33:12;-15.80;99.90
30063;DHT22;16889;67.864;24.990;2022-11-20T14:37:58;-15.80;99.90
30063;DHT22;16889;67.864;24.990;2022-11-20T14:42:44;-15.90;99.90
30063;DHT22;16889;67.864;24.990;2022-11-20T14:47:31;-15.80;99.90
30063;DHT22;16889;67.864;24.990;2022-11-20T14:52:23;-15.80;99.90
30063;DHT22;16889;67.864;24.990;2022-11-20T14:57:21;-15.90;99.90
30063;DHT22;16889;67.864;24.990;2022-11-20T15:02:11;-16.00;99.90
30063;DHT22;16889;67.864;24.990;2022-11-20T15:06:58;-16.10;99.90
30063;DHT22;16889;67.864;24.990;2022-11-20T15:11:56;-16.20;99.90
30063;DHT22;16889;67.864;24.990;2022-11-20T15:16:43;-16.30;99.90
30063;DHT22;16889;67.864;24.990;2022-11-20T15:21:29;-16.50;99.90
30063;DHT22;16889;67.864;24.990;2022-11-20T15:26:20;-16.50;99.90
30063;DHT22;16889;67.864;24.990;2022-11-20T15:45:27;-16.90;99.90
30063;DHT22;16889;67.864;24.990;2022-11-20T15:50:17;-17.10;99.90
30063;DHT22;16889;67.864;24.990;2022-11-20T15:55:08;-17.20;99.90
30063;DHT22;16889;67.864;24.990;2022-11-20T15:59:55;-16.90;99.90
30063;DHT22;16889;67.864;24.990;2022-11-20T16:04:41;-16.70;99.90
30063;DHT22;16889;67.864;24.990;2022-11-20T16:09:27;-16.70;99.90
30063;DHT22;16889;67.864;24.990;2022-11-20T16:14:13;-16.70;99.90
30063;DHT22;16889;67.864;24.990;2022-11-20T16:19:18;-16.70;99.90
30063;DHT22;16889;67.864;24.990;2022-11-20T16:24:05;-16.80;99.90
30063;DHT22;16889;67.864;24.990;2022-11-20T16:34:34;-16.80;99.90
30063;DHT22;16889;67.864;24.990;2022-11-20T16:39:19;-16.80;99.90
30063;DHT22;16889;67.864;24.990;2022-11-20T17:46:36;-18.00;99.90
30063;DHT22;16889;67.864;24.990;2022-11-20T17:51:24;-18.20;99.90
30063;DHT22;16889;67.864;24.990;2022-11-20T17:56:11;-17.90;99.90
30063;DHT22;16889;67.864;24.990;2022-11-20T18:01:16;-17.70;99.90
30063;DHT22;16889;67.864;24.990;2022-11-20T18:06:10;-18.10;99.90
30063;DHT22;16889;67.864;24.990;2022-11-20T18:10:56;-18.20;99.90
30063;DHT22;16889;67.864;24.990;2022-11-20T18:15:42;-18.00;99.90
30063;DHT22;16889;67.864;24.990;2022-11-20T18:20:28;-17.90;99.90
30063;DHT22;16889;67.864;24.990;2022-11-20T18:25:14;-18.30;99.90
30063;DHT22;16889;67.864;24.990;2022-11-20T18:30:00;-18.30;99.90
30063;DHT22;16889;67.864;24.990;2022-11-20T18:34:46;-18.10;99.90
30063;DHT22;16889;67.864;24.990;2022-11-20T18:39:32;-18.20;99.90
30063;DHT22;16889;67.864;24.990;2022-11-20T18:44:20;-18.40;99.90
30063;DHT22;16889;67.864;24.990;2022-11-20T18:49:25;-18.20;99.90
30063;DHT22;16889;67.864;24.990;2022-11-20T18:54:19;-18.10;99.90
30063;DHT22;16889;67.864;24.990;2022-11-20T18:59:13;-18.10;99.90
30063;DHT22;16889;67.864;24.990;2022-11-20T19:04:00;-18.00;99.90
30063;DHT22;16889;67.864;24.990;2022-11-20T19:08:53;-18.00;99.90
30063;DHT22;16889;67.864;24.990;2022-11-20T19:13:39;-18.00;99.90
30063;DHT22;16889;67.864;24.990;2022-11-20T19:18:28;-17.90;99.90
30063;DHT22;16889;67.864;24.990;2022-11-20T19:23:14;-17.90;99.90
30063;DHT22;16889;67.864;24.990;2022-11-20T19:28:02;-17.90;99.90
30063;DHT22;16889;67.864;24.990;2022-11-20T19:32:48;-17.90;99.90
30063;DHT22;16889;67.864;24.990;2022-11-20T19:37:34;-17.90;99.90
30063;DHT22;16889;67.864;24.990;2022-11-20T19:42:23;-17.90;99.90
30063;DHT22;16889;67.864;24.990;2022-11-20T19:47:09;-17.90;99.90
30063;DHT22;16889;67.864;24.990;2022-11-20T19:51:55;-17.90;99.90
30063;DHT22;16889;67.864;24.990;2022-11-20T19:56:41;-18.00;99.90
30063;DHT22;16889;67.864;24.990;2022-11-20T20:01:29;-18.20;99.90
30063;DHT22;16889;67.864;24.990;2022-11-20T20:06:21;-18.20;99.90
30063;DHT22;16889;67.864;24.990;2022-11-20T20:11:15;-18.20;99.90
30063;DHT22;16889;67.864;24.990;2022-11-20T20:16:05;-18.40;99.90
30063;DHT22;16889;67.864;24.990;2022-11-20T20:20:51;-18.50;99.90
30063;DHT22;16889;67.864;24.990;2022-11-20T20:25:37;-18.40;99.90
30063;DHT22;16889;67.864;24.990;2022-11-20T20:30:23;-18.40;99.90
30063;DHT22;16889;67.864;24.990;2022-11-20T20:35:09;-18.50;99.90
30063;DHT22;16889;67.864;24.990;2022-11-20T20:39:55;-18.30;99.90
30063;DHT22;16889;67.864;24.990;2022-11-20T20:44:41;-18.30;99.90
30063;DHT22;16889;67.864;24.990;2022-11-20T20:49:45;-18.20;99.90
30063;DHT22;16889;67.864;24.990;2022-11-20T20:54:31;-18.30;99.90
30063;DHT22;16889;67.864;24.990;2022-11-20T20:59:17;-18.30;99.90
30063;DHT22;16889;67.864;24.990;2022-11-20T21:04:03;-18.60;99.90
30063;DHT22;16889;67.864;24.990;2022-11-20T21:08:49;-18.90;99.90
30063;DHT22;16889;67.864;24.990;2022-11-20T21:13:36;-18.80;99.90
30063;DHT22;16889;67.864;24.990;2022-11-20T21:18:23;-18.90;99.90
30063;DHT22;16889;67.864;24.990;2022-11-20T21:23:09;-19.00;99.90
30063;DHT22;16889;67.864;24.990;2022-11-20T21:27:55;-18.90;99.90
30063;DHT22;16889;67.864;24.990;2022-11-20T21:32:41;-18.70;99.90
30063;DHT22;16889;67.864;24.990;2022-11-20T21:37:27;-18.50;99.90
30063;DHT22;16889;67.864;24.990;2022-11-20T21:42:13;-18.70;99.90
30063;DHT22;16889;67.864;24.990;2022-11-20T21:46:59;-19.00;99.90
30063;DHT22;16889;67.864;24.990;2022-11-20T21:51:45;-18.90;99.90
30063;DHT22;16889;67.864;24.990;2022-11-20T21:56:31;-18.70;99.90
30063;DHT22;16889;67.864;24.990;2022-11-20T22:01:21;-18.60;99.90
30063;DHT22;16889;67.864;24.990;2022-11-20T22:06:09;-18.50;99.90
30063;DHT22;16889;67.864;24.990;2022-11-20T22:11:00;-18.50;99.90
30063;DHT22;16889;67.864;24.990;2022-11-20T22:15:46;-18.50;99.90
30063;DHT22;16889;67.864;24.990;2022-11-20T22:20:33;-18.50;99.90
30063;DHT22;16889;67.864;24.990;2022-11-20T22:25:19;-18.50;99.90
30063;DHT22;16889;67.864;24.990;2022-11-20T22:30:05;-18.60;99.90
30063;DHT22;16889;67.864;24.990;2022-11-20T22:34:51;-18.60;99.90
30063;DHT22;16889;67.864;24.990;2022-11-20T22:39:37;-18.60;99.90
30063;DHT22;16889;67.864;24.990;2022-11-20T22:44:23;-18.70;99.90
30063;DHT22;16889;67.864;24.990;2022-11-20T22:49:09;-18.80;99.90
30063;DHT22;16889;67.864;24.990;2022-11-20T22:53:55;-19.00;99.90
30063;DHT22;16889;67.864;24.990;2022-11-20T22:58:44;-19.00;99.90
30063;DHT22;16889;67.864;24.990;2022-11-20T23:03:30;-18.90;99.90
30063;DHT22;16889;67.864;24.990;2022-11-20T23:08:16;-19.20;99.90
30063;DHT22;16889;67.864;24.990;2022-11-20T23:13:02;-19.40;99.90
30063;DHT22;16889;67.864;24.990;2022-11-20T23:17:48;-19.30;99.90
30063;DHT22;16889;67.864;24.990;2022-11-20T23:22:34;-19.20;99.90
30063;DHT22;16889;67.864;24.990;2022-11-20T23:27:20;-19.10;99.90
30063;DHT22;16889;67.864;24.990;2022-11-20T23:32:06;-18.90;99.90
30063;DHT22;16889;67.864;24.990;2022-11-20T23:36:52;-19.00;99.90
30063;DHT22;16889;67.864;24.990;2022-11-20T23:41:38;-19.10;99.90
30063;DHT22;16889;67.864;24.990;2022-11-20T23:46:24;-19.10;99.90
30063;DHT22;16889;67.864;24.990;2022-11-20T23:51:10;-19.20;99.90
30063;DHT22;16889;67.864;24.990;2022-11-20T23:55:58;-19.10;99.90
